Time;durP1;ratioP1;P1;durP2;ratioP2;P2;SDS_P1;SDS_P2;PMS_P1;PMS_P2;Temp;Humidity;BMP_temperature;BMP_pressure;BME280_temperature;BME280_humidity;BME280_pressure;Samples;Min_cycle;Max_cycle;Signal;HPM_P1;HPM_P2
2022/09/21 00:00:08;;;;;;;7.97;1.77;;;5.50;99.90;;;;;;4985674;28;20129;-76
2022/09/21 00:02:34;;;;;;;0.60;0.60;;;5.40;99.90;;;;;;4987289;28;20027;-76
2022/09/21 00:05:00;;;;;;;0.32;0.32;;;5.30;99.90;;;;;;4987397;28;20082;-76
2022/09/21 00:07:25;;;;;;;0.30;0.30;;;5.70;99.90;;;;;;4989803;28;20022;-75
2022/09/21 00:09:51;;;;;;;0.52;0.52;;;5.50;99.90;;;;;;5004148;28;20113;-76
2022/09/21 00:12:17;;;;;;;1.25;0.60;;;5.30;99.90;;;;;;4989259;28;20030;-75
2022/09/21 00:14:42;;;;;;;0.22;0.22;;;5.30;99.90;;;;;;4988145;28;20038;-76
2022/09/21 00:17:08;;;;;;;4.15;0.68;;;5.20;99.90;;;;;;4988526;28;20042;-75
2022/09/21 00:19:34;;;;;;;5.40;0.55;;;5.30;99.90;;;;;;4987312;28;20041;-75
2022/09/21 00:22:00;;;;;;;0.55;0.55;;;5.30;99.90;;;;;;4986710;28;20528;-76
2022/09/21 00:24:26;;;;;;;0.60;0.60;;;5.20;99.90;;;;;;4986636;28;20038;-75
2022/09/21 00:26:52;;;;;;;0.65;0.65;;;5.30;99.90;;;;;;4986135;28;20121;-75
2022/09/21 00:29:17;;;;;;;0.60;0.60;;;5.20;99.90;;;;;;4986833;28;20141;-75
2022/09/21 00:31:43;;;;;;;0.90;0.85;;;5.20;99.90;;;;;;4987456;28;20050;-74
2022/09/21 00:34:12;;;;;;;1.50;1.25;;;5.10;99.90;;;;;;4987281;28;20387;-75
2022/09/21 00:36:38;;;;;;;3.53;0.40;;;5.00;99.90;;;;;;4988025;28;20050;-75
2022/09/21 00:39:03;;;;;;;1.17;1.08;;;4.90;99.90;;;;;;4986961;28;20850;-76
2022/09/21 00:41:32;;;;;;;0.38;0.38;;;5.50;99.90;;;;;;4981362;28;20027;-75
2022/09/21 00:44:17;;;;;;;2.13;1.30;;;4.90;99.90;;;;;;4986664;28;20050;-76
2022/09/21 00:46:44;;;;;;;1.23;1.20;;;4.90;99.90;;;;;;4984147;28;20031;-75
2022/09/21 00:49:10;;;;;;;0.82;0.70;;;4.70;99.90;;;;;;4989081;28;20062;-75
2022/09/21 00:51:37;;;;;;;0.95;0.40;;;4.70;99.90;;;;;;4987772;28;20057;-75
2022/09/21 00:54:14;;;;;;;0.40;0.40;;;4.70;99.90;;;;;;4987609;28;20034;-73
2022/09/21 00:56:41;;;;;;;1.55;1.38;;;4.60;99.90;;;;;;4988154;28;20080;-75
2022/09/21 00:59:07;;;;;;;0.75;0.75;;;4.60;99.90;;;;;;4990937;28;20022;-74
2022/09/21 01:01:33;;;;;;;1.27;0.95;;;4.70;99.90;;;;;;4991034;28;20110;-74
2022/09/21 01:03:59;;;;;;;0.70;0.70;;;4.50;99.90;;;;;;4992921;28;20106;-74
2022/09/21 01:06:25;;;;;;;1.30;1.27;;;4.50;99.90;;;;;;5008798;28;20125;-74
2022/09/21 01:08:54;;;;;;;1.30;1.20;;;4.50;99.90;;;;;;4993492;28;20022;-74
2022/09/21 01:11:28;;;;;;;1.20;0.70;;;4.60;99.90;;;;;;4994990;28;20019;-73
2022/09/21 01:14:30;;;;;;;0.63;0.45;;;4.70;99.90;;;;;;4995107;28;20030;-74
2022/09/21 01:17:11;;;;;;;0.98;0.80;;;4.80;99.90;;;;;;4993836;28;20027;-75
2022/09/21 01:20:09;;;;;;;1.02;1.02;;;4.80;99.90;;;;;;4993541;28;20069;-74
2022/09/21 01:23:01;;;;;;;0.90;0.90;;;4.70;99.90;;;;;;4993458;28;20046;-74
2022/09/21 01:26:05;;;;;;;0.85;0.85;;;4.60;99.90;;;;;;4993035;28;20034;-75
2022/09/21 01:28:48;;;;;;;3.20;1.45;;;4.50;99.90;;;;;;4994712;28;20030;-74
2022/09/21 01:31:26;;;;;;;1.52;1.42;;;4.60;99.90;;;;;;4993230;28;20050;-74
2022/09/21 01:33:56;;;;;;;4.80;1.20;;;4.70;99.90;;;;;;4994204;28;20030;-74
2022/09/21 01:36:27;;;;;;;4.03;1.67;;;4.80;99.90;;;;;;5009421;28;20036;-75
2022/09/21 01:39:08;;;;;;;2.13;0.98;;;4.70;99.90;;;;;;4994817;28;20034;-73
2022/09/21 01:41:36;;;;;;;1.73;1.30;;;4.70;99.90;;;;;;4992952;28;20025;-75
2022/09/21 01:44:07;;;;;;;1.05;0.70;;;4.90;99.90;;;;;;4993777;28;20108;-74
2022/09/21 01:46:35;;;;;;;1.48;0.65;;;4.90;99.90;;;;;;4994334;28;20092;-74
2022/09/21 01:49:11;;;;;;;4.90;2.78;;;4.90;99.90;;;;;;4994745;28;20030;-73
2022/09/21 01:51:42;;;;;;;3.25;1.15;;;4.80;99.90;;;;;;4993325;28;20069;-73
2022/09/21 01:54:20;;;;;;;2.03;0.82;;;4.60;99.90;;;;;;4993302;28;20096;-74
2022/09/21 01:56:50;;;;;;;1.02;1.02;;;4.50;99.90;;;;;;4994251;28;20023;-74
2022/09/21 01:59:26;;;;;;;0.65;0.65;;;4.50;99.90;;;;;;4992679;28;20045;-74
2022/09/21 02:01:59;;;;;;;0.85;0.60;;;4.40;99.90;;;;;;4993807;28;20117;-74
2022/09/21 02:04:26;;;;;;;1.63;0.77;;;4.50;99.90;;;;;;4994073;28;20018;-73
2022/09/21 02:06:52;;;;;;;0.55;0.55;;;4.50;99.90;;;;;;4996212;28;20080;-74
2022/09/21 02:09:19;;;;;;;3.13;0.85;;;4.60;99.90;;;;;;4996543;28;20106;-74
2022/09/21 02:11:45;;;;;;;1.60;1.17;;;4.70;99.90;;;;;;4996984;28;20049;-73
2022/09/21 02:14:21;;;;;;;3.35;1.15;;;4.60;99.90;;;;;;4996693;28;20552;-74
2022/09/21 02:16:55;;;;;;;1.27;1.17;;;4.60;99.90;;;;;;4995953;28;20060;-73
2022/09/21 02:19:39;;;;;;;2.25;1.77;;;2.60;99.90;;;;;;4993379;28;20526;-73
2022/09/21 02:22:09;;;;;;;1.13;1.02;;;4.60;99.90;;;;;;4992414;28;20015;-74
2022/09/21 02:24:46;;;;;;;4.60;1.65;;;4.70;99.90;;;;;;4991834;28;20065;-73
2022/09/21 02:27:26;;;;;;;2.13;1.35;;;4.80;99.90;;;;;;4989514;28;20023;-74
2022/09/21 02:30:03;;;;;;;1.42;1.33;;;2.50;99.90;;;;;;4990489;28;20038;-73
2022/09/21 02:32:50;;;;;;;1.10;0.95;;;5.00;99.90;;;;;;4992617;28;20046;-73
2022/09/21 02:35:18;;;;;;;1.95;1.55;;;4.90;99.90;;;;;;4993452;28;20023;-74
2022/09/21 02:37:54;;;;;;;2.72;2.25;;;4.90;99.90;;;;;;4992209;28;20018;-74
2022/09/21 02:40:30;;;;;;;1.40;1.30;;;4.80;99.90;;;;;;5008064;28;20289;-74
2022/09/21 02:43:13;;;;;;;2.30;1.35;;;4.80;99.90;;;;;;5007717;28;20030;-74
2022/09/21 02:45:55;;;;;;;3.55;1.52;;;4.80;99.90;;;;;;4992979;28;20027;-74
2022/09/21 02:48:38;;;;;;;1.73;1.00;;;4.70;99.90;;;;;;4991442;28;20030;-74
2022/09/21 02:51:10;;;;;;;2.17;1.30;;;4.60;99.90;;;;;;4995022;28;20081;-74
2022/09/21 02:53:38;;;;;;;1.58;1.40;;;4.70;99.90;;;;;;4994211;28;20030;-74
2022/09/21 02:56:06;;;;;;;1.95;1.85;;;4.70;99.90;;;;;;4993635;28;20394;-74
2022/09/21 02:58:37;;;;;;;2.25;1.45;;;4.80;99.90;;;;;;4993364;28;20427;-73
2022/09/21 03:01:06;;;;;;;1.55;1.05;;;4.70;99.90;;;;;;4994367;28;20033;-74
2022/09/21 03:03:32;;;;;;;2.45;2.25;;;4.70;99.90;;;;;;4994761;28;20023;-73
2022/09/21 03:05:58;;;;;;;1.77;1.23;;;4.70;99.90;;;;;;4993622;28;20107;-74
2022/09/21 03:08:24;;;;;;;2.00;1.80;;;4.60;99.90;;;;;;4994443;28;20037;-73
2022/09/21 03:10:50;;;;;;;1.25;1.15;;;4.60;99.90;;;;;;4994397;28;20026;-73
2022/09/21 03:13:16;;;;;;;2.42;0.85;;;4.60;99.90;;;;;;4993214;28;20033;-74
2022/09/21 03:15:42;;;;;;;1.63;1.52;;;4.60;99.90;;;;;;4994121;28;20031;-74
2022/09/21 03:18:10;;;;;;;1.88;1.73;;;4.50;99.90;;;;;;4993766;28;20058;-74
2022/09/21 03:20:44;;;;;;;1.92;1.83;;;4.60;99.90;;;;;;4992756;28;20034;-73
2022/09/21 03:23:10;;;;;;;1.75;1.63;;;4.60;99.90;;;;;;4991763;28;20019;-73
2022/09/21 03:25:35;;;;;;;5.43;2.13;;;4.60;99.90;;;;;;4993715;28;20109;-74
2022/09/21 03:28:01;;;;;;;2.22;2.13;;;4.60;99.90;;;;;;4991163;28;20519;-74
2022/09/21 03:30:28;;;;;;;2.53;2.33;;;4.60;99.90;;;;;;4992083;28;20062;-73
2022/09/21 03:32:54;;;;;;;4.60;2.85;;;4.70;99.90;;;;;;4991083;28;20022;-74
2022/09/21 03:35:22;;;;;;;3.85;2.67;;;4.60;99.90;;;;;;4993067;28;20363;-73
2022/09/21 03:37:49;;;;;;;2.33;1.83;;;4.60;99.90;;;;;;4991871;28;20088;-74
2022/09/21 03:40:16;;;;;;;3.63;3.33;;;4.50;99.90;;;;;;4990146;28;20084;-74
2022/09/21 03:42:42;;;;;;;5.03;2.53;;;4.60;99.90;;;;;;4994093;28;20049;-73
2022/09/21 03:45:10;;;;;;;1.33;1.23;;;4.50;99.90;;;;;;4993306;28;20513;-74
2022/09/21 03:47:37;;;;;;;5.03;3.20;;;4.60;99.90;;;;;;4994817;28;20022;-74
2022/09/21 03:50:04;;;;;;;2.13;1.73;;;4.60;99.90;;;;;;4994222;28;20033;-74
2022/09/21 03:52:30;;;;;;;1.95;1.85;;;4.50;99.90;;;;;;4996112;28;20089;-74
2022/09/21 03:54:56;;;;;;;3.75;1.85;;;4.50;99.90;;;;;;4996299;28;20265;-74
2022/09/21 03:57:21;;;;;;;1.98;1.88;;;4.50;99.90;;;;;;4996966;28;20041;-74
2022/09/21 03:59:47;;;;;;;5.82;2.83;;;4.60;99.90;;;;;;4996599;28;20034;-73
2022/09/21 04:02:13;;;;;;;3.70;2.60;;;4.50;99.90;;;;;;4996230;28;20026;-74
2022/09/21 04:04:39;;;;;;;1.13;1.02;;;4.60;99.90;;;;;;4995315;28;20026;-74
2022/09/21 04:07:05;;;;;;;2.58;2.38;;;4.50;99.90;;;;;;4997089;28;20023;-74
2022/09/21 04:09:31;;;;;;;2.40;2.20;;;4.50;99.90;;;;;;4996316;28;20105;-73
2022/09/21 04:11:57;;;;;;;2.13;1.95;;;;;;;;;;4996682;28;20454;-73
2022/09/21 04:14:22;;;;;;;1.25;0.90;;;4.60;99.90;;;;;;4996820;28;20108;-74
2022/09/21 04:16:50;;;;;;;1.50;1.30;;;4.50;99.90;;;;;;4994447;28;20073;-73
2022/09/21 04:19:17;;;;;;;3.55;1.98;;;4.50;99.90;;;;;;4994615;28;20057;-74
2022/09/21 04:21:42;;;;;;;1.90;1.63;;;4.60;99.90;;;;;;4994921;28;20026;-74
2022/09/21 04:24:08;;;;;;;3.88;2.08;;;4.80;99.90;;;;;;4995841;28;20045;-74
2022/09/21 04:26:34;;;;;;;2.47;2.17;;;4.90;99.90;;;;;;4995626;28;20035;-73
2022/09/21 04:29:01;;;;;;;2.15;1.80;;;4.90;99.90;;;;;;4993657;28;20145;-73
2022/09/21 04:31:28;;;;;;;1.67;1.58;;;5.00;99.90;;;;;;4993892;28;20054;-73
2022/09/21 04:33:55;;;;;;;3.95;1.88;;;5.10;99.90;;;;;;4995223;28;20022;-73
2022/09/21 04:36:23;;;;;;;2.78;2.25;;;5.30;99.90;;;;;;4995660;28;20491;-73
2022/09/21 04:38:49;;;;;;;3.25;3.00;;;5.40;99.90;;;;;;4994838;28;20398;-74
2022/09/21 04:41:15;;;;;;;4.13;2.90;;;5.50;99.90;;;;;;4993995;28;20041;-74
2022/09/21 04:43:42;;;;;;;4.65;2.92;;;5.60;99.90;;;;;;4993237;28;20034;-74
2022/09/21 04:46:10;;;;;;;3.33;3.00;;;5.70;99.90;;;;;;4993455;28;20050;-74
2022/09/21 04:48:36;;;;;;;3.92;1.80;;;5.80;99.90;;;;;;4993553;28;20026;-73
2022/09/21 04:51:02;;;;;;;3.15;1.90;;;5.90;99.90;;;;;;4993134;28;20102;-74
2022/09/21 04:53:29;;;;;;;1.98;1.80;;;6.00;99.90;;;;;;4992212;28;20378;-73
2022/09/21 04:55:55;;;;;;;1.83;1.40;;;6.10;99.90;;;;;;4992969;28;20271;-74
2022/09/21 04:58:22;;;;;;;7.60;2.83;;;6.10;99.90;;;;;;4992782;28;20297;-74
2022/09/21 05:00:50;;;;;;;2.08;1.98;;;6.20;99.90;;;;;;4992736;28;20030;-74
2022/09/21 05:03:17;;;;;;;9.23;3.55;;;6.20;99.90;;;;;;4992829;28;20062;-73
2022/09/21 05:05:51;;;;;;;7.03;3.60;;;6.20;99.90;;;;;;4992860;28;20494;-74
2022/09/21 05:10:01;;;;;;;3.90;2.58;;;6.30;99.90;;;;;;4992640;28;20224;-74
2022/09/21 05:11:11;;;;;;;7.30;4.63;;;6.40;99.90;;;;;;4992672;28;20386;-73
2022/09/21 05:13:38;;;;;;;7.55;4.22;;;6.50;99.90;;;;;;4992361;28;20478;-74
2022/09/21 05:16:04;;;;;;;8.55;4.88;;;6.60;99.90;;;;;;4992573;28;20533;-73
2022/09/21 05:18:29;;;;;;;9.55;4.03;;;6.70;99.90;;;;;;4992563;28;20031;-73
2022/09/21 05:20:56;;;;;;;6.35;5.05;;;6.80;99.90;;;;;;4992422;28;20038;-74
2022/09/21 05:23:26;;;;;;;13.10;5.72;;;8.10;99.90;;;;;;4992295;28;20058;-74
2022/09/21 05:25:51;;;;;;;9.48;6.25;;;6.80;99.90;;;;;;4990760;28;20394;-74
2022/09/21 05:28:18;;;;;;;17.40;7.80;;;6.90;99.90;;;;;;4992190;28;20474;-73
2022/09/21 05:31:06;;;;;;;11.57;8.95;;;6.90;99.90;;;;;;4991920;28;20457;-74
2022/09/21 05:33:34;;;;;;;12.32;8.20;;;7.00;99.90;;;;;;4961647;28;20034;-74
2022/09/21 05:36:09;;;;;;;8.75;5.20;;;6.90;99.90;;;;;;4992155;28;20085;-74
2022/09/21 05:38:34;;;;;;;14.05;8.38;;;7.00;99.90;;;;;;4991962;28;20359;-74
2022/09/21 05:41:00;;;;;;;13.73;6.53;;;7.20;99.90;;;;;;4992057;28;20030;-74
2022/09/21 05:43:26;;;;;;;25.73;6.95;;;7.20;99.90;;;;;;4992591;28;20386;-74
2022/09/21 05:46:01;;;;;;;19.40;5.95;;;7.10;99.90;;;;;;4994075;28;20030;-74
2022/09/21 05:48:35;;;;;;;18.48;6.65;;;7.10;99.90;;;;;;5002087;28;20040;-74
2022/09/21 05:51:23;;;;;;;10.80;5.93;;;7.10;99.90;;;;;;5001812;28;20056;-75
2022/09/21 05:54:07;;;;;;;10.37;7.17;;;7.10;99.90;;;;;;4964066;28;20060;-75
2022/09/21 05:56:52;;;;;;;5.57;3.60;;;7.10;99.90;;;;;;4991655;28;20090;-74
2022/09/21 05:59:49;;;;;;;7.10;5.35;;;7.10;99.90;;;;;;4980404;28;20037;-77
2022/09/21 06:02:46;;;;;;;6.80;3.75;;;7.10;99.90;;;;;;4962731;28;20041;-77
2022/09/21 06:05:13;;;;;;;7.82;4.97;;;7.20;99.90;;;;;;4988696;28;20077;-78
2022/09/21 06:07:40;;;;;;;7.97;4.47;;;7.20;99.90;;;;;;4987683;28;20018;-78
2022/09/21 06:10:07;;;;;;;9.32;5.30;;;7.40;99.90;;;;;;4992752;28;20031;-76
2022/09/21 06:12:32;;;;;;;5.82;3.80;;;7.40;99.90;;;;;;4991582;28;20021;-77
2022/09/21 06:14:58;;;;;;;11.60;5.88;;;7.30;99.90;;;;;;4989062;28;20022;-76
2022/09/21 06:17:26;;;;;;;6.50;5.32;;;7.50;99.90;;;;;;4987569;28;20030;-78
2022/09/21 06:19:52;;;;;;;7.63;4.25;;;7.50;99.90;;;;;;4988673;28;20498;-78
2022/09/21 06:22:18;;;;;;;11.95;5.13;;;7.50;99.90;;;;;;4988997;28;20022;-78
2022/09/21 06:24:44;;;;;;;6.30;4.65;;;7.50;99.90;;;;;;4989071;28;20041;-78
2022/09/21 06:27:10;;;;;;;7.05;6.35;;;7.50;99.90;;;;;;5002996;28;20089;-78
2022/09/21 06:29:36;;;;;;;15.75;5.38;;;7.40;99.90;;;;;;4987887;28;20034;-79
2022/09/21 06:32:04;;;;;;;9.65;3.55;;;7.50;99.90;;;;;;4987213;28;20046;-76
2022/09/21 06:34:30;;;;;;;13.33;4.33;;;7.50;99.90;;;;;;4986790;28;20037;-78
2022/09/21 06:36:56;;;;;;;8.88;4.63;;;7.60;99.90;;;;;;4993482;28;20022;-77
2022/09/21 06:39:22;;;;;;;5.18;3.80;;;7.90;99.90;;;;;;4967746;28;20046;-77
2022/09/21 06:41:47;;;;;;;8.15;4.32;;;8.00;99.90;;;;;;4983758;28;20027;-78
2022/09/21 06:44:13;;;;;;;15.95;6.15;;;8.00;99.90;;;;;;4987175;28;20022;-78
2022/09/21 06:46:39;;;;;;;9.40;4.30;;;8.00;99.90;;;;;;4987153;28;20030;-78
2022/09/21 06:49:05;;;;;;;8.80;4.22;;;8.00;99.90;;;;;;4986036;28;20018;-78
2022/09/21 06:51:30;;;;;;;7.38;4.70;;;8.00;99.90;;;;;;4986441;28;20038;-78
2022/09/21 06:53:57;;;;;;;7.72;4.00;;;8.00;99.90;;;;;;4987489;28;20408;-79
2022/09/21 06:56:24;;;;;;;7.97;4.13;;;8.00;99.90;;;;;;4988058;28;20030;-79
2022/09/21 06:58:51;;;;;;;7.30;4.32;;;8.10;99.90;;;;;;4993684;28;20033;-79
2022/09/21 07:01:17;;;;;;;7.95;4.75;;;10.20;99.90;;;;;;4989660;28;20022;-79
2022/09/21 07:03:43;;;;;;;8.43;3.65;;;8.20;99.90;;;;;;4988115;28;20042;-80
2022/09/21 07:06:12;;;;;;;4.22;2.65;;;8.50;99.90;;;;;;4987635;28;20503;-78
2022/09/21 07:08:38;;;;;;;8.43;3.80;;;8.80;99.90;;;;;;4988351;28;20052;-80
2022/09/21 07:11:05;;;;;;;12.27;3.40;;;9.10;99.90;;;;;;4987679;28;20034;-77
2022/09/21 07:13:31;;;;;;;3.95;3.38;;;9.40;99.90;;;;;;4984575;28;20077;-78
2022/09/21 07:15:56;;;;;;;7.95;4.03;;;9.40;99.90;;;;;;4991112;28;20105;-78
2022/09/21 07:18:22;;;;;;;2.53;2.33;;;9.20;99.90;;;;;;4991129;28;20018;-78
2022/09/21 07:20:48;;;;;;;3.40;3.10;;;9.20;99.90;;;;;;4991831;28;20506;-78
2022/09/21 07:23:16;;;;;;;4.43;3.10;;;9.10;99.90;;;;;;4991549;28;20110;-76
2022/09/21 07:25:48;;;;;;;9.52;3.88;;;9.10;99.90;;;;;;4992709;28;20100;-76
2022/09/21 07:28:14;;;;;;;3.83;3.47;;;9.30;99.90;;;;;;4992130;28;20022;-76
2022/09/21 07:30:40;;;;;;;6.80;3.75;;;9.60;99.90;;;;;;4992131;28;20061;-76
2022/09/21 07:33:06;;;;;;;5.90;3.38;;;9.80;99.90;;;;;;4990663;28;20494;-75
2022/09/21 07:35:33;;;;;;;8.52;3.33;;;10.00;99.90;;;;;;4991785;28;20033;-74
2022/09/21 07:38:00;;;;;;;4.15;3.10;;;9.80;99.90;;;;;;4992512;28;20050;-75
2022/09/21 07:40:26;;;;;;;3.70;2.67;;;9.70;99.90;;;;;;4987252;28;21000;-74
2022/09/21 07:42:58;;;;;;;11.65;3.45;;;9.50;99.90;;;;;;4989687;28;20399;-74
2022/09/21 07:45:25;;;;;;;5.78;3.70;;;9.10;99.90;;;;;;4986562;28;20031;-76
2022/09/21 07:47:53;;;;;;;7.90;3.55;;;9.30;99.90;;;;;;4974714;28;20077;-76
2022/09/21 07:50:20;;;;;;;6.22;4.45;;;9.40;99.90;;;;;;4996557;28;20346;-75
2022/09/21 07:52:46;;;;;;;4.15;3.00;;;9.30;99.90;;;;;;4972418;28;20031;-75
2022/09/21 07:55:11;;;;;;;6.10;3.75;;;9.40;99.90;;;;;;4988584;28;20229;-76
2022/09/21 08:00:21;;;;;;;10.45;4.22;;;9.90;99.90;;;;;;4988635;28;20046;-75
2022/09/21 08:02:49;;;;;;;10.40;4.22;;;10.10;99.90;;;;;;4989266;28;20022;-75
2022/09/21 08:05:15;;;;;;;2.70;2.60;;;10.20;99.90;;;;;;4989547;28;20027;-76
2022/09/21 08:07:41;;;;;;;7.80;3.72;;;10.30;99.90;;;;;;4989102;28;20778;-76
2022/09/21 08:10:07;;;;;;;3.95;3.63;;;10.50;99.90;;;;;;4989529;28;20088;-75
2022/09/21 08:12:33;;;;;;;4.47;2.28;;;10.70;99.90;;;;;;4990238;28;20084;-75
2022/09/21 08:14:59;;;;;;;4.10;2.55;;;10.80;99.90;;;;;;4990063;28;20030;-77
2022/09/21 08:17:24;;;;;;;24.98;10.27;;;10.80;99.90;;;;;;4989578;28;20616;-76
2022/09/21 08:19:50;;;;;;;6.68;4.43;;;10.80;99.90;;;;;;4990241;28;20050;-75
2022/09/21 08:22:23;;;;;;;25.63;8.00;;;10.80;99.90;;;;;;4990143;28;20019;-75
2022/09/21 08:24:49;;;;;;;7.72;3.17;;;10.70;99.90;;;;;;5005240;28;20030;-76
2022/09/21 08:27:15;;;;;;;5.85;2.33;;;10.70;99.90;;;;;;4989352;28;20482;-77
2022/09/21 08:29:41;;;;;;;4.30;2.40;;;10.60;99.90;;;;;;4990074;28;20393;-76
2022/09/21 08:32:07;;;;;;;8.00;2.85;;;10.50;99.90;;;;;;4991441;28;20147;-77
2022/09/21 08:34:32;;;;;;;2.13;1.52;;;10.50;99.90;;;;;;4992979;28;20105;-77
2022/09/21 08:36:58;;;;;;;5.18;2.67;;;10.80;99.90;;;;;;5007386;28;20045;-76
2022/09/21 08:39:24;;;;;;;4.05;2.90;;;10.70;99.90;;;;;;4992237;28;20320;-77
2022/09/21 08:42:40;;;;;;;3.78;2.80;;;10.50;99.90;;;;;;4992329;28;20019;-76
2022/09/21 08:45:16;;;;;;;4.15;2.10;;;10.70;99.90;;;;;;4947889;29;20110;-76
2022/09/21 08:47:47;;;;;;;5.05;3.20;;;10.90;99.90;;;;;;4948822;29;20039;-76
2022/09/21 08:50:38;;;;;;;5.93;2.30;;;10.70;99.90;;;;;;4972442;28;20042;-76
2022/09/21 08:53:18;;;;;;;3.97;2.40;;;10.70;99.90;;;;;;4989821;28;20019;-76
2022/09/21 08:55:44;;;;;;;;;;;10.60;99.90;;;;;;4990476;28;20027;-76
2022/09/21 08:58:26;;;;;;;4.63;2.10;;;10.60;99.90;;;;;;4990025;28;20581;-77
2022/09/21 09:01:20;;;;;;;4.03;2.60;;;10.30;99.90;;;;;;4989585;28;20046;-76
2022/09/21 09:04:23;;;;;;;3.70;2.28;;;10.40;99.90;;;;;;4988401;28;20050;-75
2022/09/21 09:07:21;;;;;;;4.65;2.67;;;10.40;99.90;;;;;;4991286;28;20023;-76
2022/09/21 09:10:11;;;;;;;2.72;2.53;;;10.40;99.90;;;;;;4989800;28;20023;-76
2022/09/21 09:12:43;;;;;;;10.88;3.00;;;10.50;99.90;;;;;;4989643;28;20026;-76
2022/09/21 09:15:27;;;;;;;3.08;2.80;;;10.20;99.90;;;;;;4992171;28;20544;-76
2022/09/21 09:18:21;;;;;;;6.30;2.63;;;9.90;99.90;;;;;;4992307;28;20034;-76
2022/09/21 09:20:59;;;;;;;23.35;3.13;;;9.90;99.90;;;;;;4963132;28;20475;-76
2022/09/21 09:24:02;;;;;;;6.15;2.42;;;10.00;99.90;;;;;;4990301;28;20526;-76
2022/09/21 09:26:52;;;;;;;3.17;1.35;;;10.10;99.90;;;;;;4931849;29;20506;-76
2022/09/21 09:29:26;;;;;;;4.53;2.28;;;10.20;99.90;;;;;;4984993;28;20035;-76
2022/09/21 09:31:54;;;;;;;4.88;2.20;;;10.30;99.90;;;;;;4988912;28;20137;-76
2022/09/21 09:34:31;;;;;;;2.20;1.58;;;10.40;99.90;;;;;;4988558;28;20030;-77
2022/09/21 09:37:16;;;;;;;4.20;2.92;;;10.60;99.90;;;;;;4988615;28;20106;-76
2022/09/21 09:39:52;;;;;;;5.10;2.00;;;10.70;99.90;;;;;;4989057;28;20125;-76
2022/09/21 09:43:01;;;;;;;4.78;1.58;;;10.90;99.90;;;;;;4989234;28;20054;-76
2022/09/21 09:46:03;;;;;;;1.42;1.17;;;11.00;99.90;;;;;;4989175;28;20467;-76
2022/09/21 09:48:53;;;;;;;1.55;1.50;;;11.00;99.90;;;;;;4987781;28;20046;-76
2022/09/21 09:51:18;;;;;;;2.40;2.15;;;11.10;99.90;;;;;;4988673;28;20026;-77
2022/09/21 09:53:44;;;;;;;3.15;1.35;;;11.10;99.90;;;;;;4988207;28;20085;-76
2022/09/21 09:56:13;;;;;;;2.33;2.13;;;11.20;99.90;;;;;;4988399;28;20279;-76
2022/09/21 09:58:52;;;;;;;18.40;2.47;;;11.30;99.90;;;;;;4988252;28;20033;-76
2022/09/21 10:01:40;;;;;;;3.50;1.85;;;11.50;99.90;;;;;;4988343;28;20026;-77
2022/09/21 10:04:14;;;;;;;1.98;1.75;;;11.60;99.90;;;;;;4988271;28;20026;-77
2022/09/21 10:06:41;;;;;;;1.02;0.95;;;11.70;99.90;;;;;;4990023;28;20026;-77
2022/09/21 10:09:26;;;;;;;2.00;1.50;;;11.70;99.90;;;;;;5003849;28;20057;-77
2022/09/21 10:12:14;;;;;;;1.10;0.90;;;11.80;99.90;;;;;;4988048;28;20061;-77
2022/09/21 10:14:49;;;;;;;1.65;1.55;;;11.90;99.90;;;;;;4986368;28;20081;-78
2022/09/21 10:17:16;;;;;;;1.80;1.52;;;12.10;99.90;;;;;;4987895;28;20015;-78
2022/09/21 10:19:42;;;;;;;1.08;0.52;;;12.10;99.90;;;;;;4987919;28;20109;-77
2022/09/21 10:22:18;;;;;;;1.23;1.23;;;12.10;99.90;;;;;;4987554;28;20208;-77
2022/09/21 10:24:53;;;;;;;2.35;1.27;;;12.20;99.90;;;;;;4988084;28;20026;-77
2022/09/21 10:27:32;;;;;;;3.03;1.35;;;12.30;99.90;;;;;;4988019;28;20030;-77
2022/09/21 10:29:58;;;;;;;2.72;0.90;;;12.40;99.90;;;;;;4987784;28;20251;-77
2022/09/21 10:32:25;;;;;;;2.13;1.42;;;12.40;99.90;;;;;;4989746;28;20117;-77
2022/09/21 10:35:06;;;;;;;1.75;1.00;;;12.40;99.90;;;;;;4990173;28;20220;-78
2022/09/21 10:37:39;;;;;;;1.52;1.25;;;12.40;99.90;;;;;;4990260;28;20092;-77
2022/09/21 10:40:22;;;;;;;3.00;1.33;;;12.70;99.90;;;;;;4989364;28;20069;-77
2022/09/21 10:42:54;;;;;;;3.20;1.08;;;12.70;99.90;;;;;;4989781;28;20102;-77
2022/09/21 10:45:26;;;;;;;2.00;1.42;;;12.70;99.90;;;;;;4988433;28;20038;-76
2022/09/21 10:48:14;;;;;;;1.65;1.20;;;12.90;99.90;;;;;;4994843;28;20030;-77
2022/09/21 10:50:48;;;;;;;1.05;0.88;;;13.00;99.90;;;;;;4992033;28;20050;-77
2022/09/21 10:53:29;;;;;;;14.77;2.25;;;13.20;99.90;;;;;;4996309;28;20179;-76
2022/09/21 10:56:34;;;;;;;2.22;1.00;;;13.40;99.90;;;;;;4989734;28;20482;-77
2022/09/21 10:59:19;;;;;;;2.45;1.20;;;13.40;99.90;;;;;;4985645;28;20047;-76
2022/09/21 11:01:47;;;;;;;1.08;1.08;;;13.60;99.90;;;;;;4994934;28;20027;-77
2022/09/21 11:04:38;;;;;;;1.92;1.40;;;13.80;99.90;;;;;;4988489;28;20038;-76
2022/09/21 11:07:15;;;;;;;3.10;1.45;;;13.80;99.90;;;;;;4991766;28;20030;-77
2022/09/21 11:10:07;;;;;;;5.97;1.15;;;13.70;99.90;;;;;;4988816;28;20053;-76
2022/09/21 11:12:54;;;;;;;6.93;2.17;;;13.70;99.90;;;;;;4965953;28;20030;-76
2022/09/21 11:15:37;;;;;;;1.33;1.10;;;14.10;99.90;;;;;;4987251;28;20033;-76
2022/09/21 11:18:21;;;;;;;4.93;1.50;;;14.30;99.90;;;;;;4987857;28;20545;-77
2022/09/21 11:20:50;;;;;;;3.75;1.40;;;14.30;99.90;;;;;;4990810;28;20070;-76
2022/09/21 11:23:37;;;;;;;0.70;0.70;;;14.50;99.90;;;;;;4987138;28;20034;-76
2022/09/21 11:26:25;;;;;;;2.00;1.10;;;14.70;99.90;;;;;;4985701;28;20468;-76
2022/09/21 11:29:07;;;;;;;1.65;1.05;;;14.80;99.90;;;;;;4987485;28;20037;-76
2022/09/21 11:32:16;;;;;;;3.17;1.38;;;14.70;99.90;;;;;;4987256;28;20046;-76
2022/09/21 11:34:45;;;;;;;6.18;1.30;;;14.70;99.90;;;;;;4987166;28;20038;-77
2022/09/21 11:37:23;;;;;;;5.47;1.17;;;14.70;99.90;;;;;;4985611;28;20131;-77
2022/09/21 11:39:52;;;;;;;1.63;1.52;;;15.00;99.90;;;;;;4987058;28;20462;-76
2022/09/21 11:42:52;;;;;;;0.63;0.63;;;13.90;99.90;;;;;;4986575;28;20399;-75
2022/09/21 11:45:57;;;;;;;3.08;1.90;;;15.10;99.90;;;;;;4986920;28;20418;-76
2022/09/21 11:48:42;;;;;;;1.30;1.20;;;15.30;99.90;;;;;;4986885;28;20019;-76
2022/09/21 11:51:20;;;;;;;4.70;1.15;;;15.50;99.90;;;;;;4988233;28;20023;-76
2022/09/21 11:54:33;;;;;;;2.88;1.58;;;15.90;99.90;;;;;;4988045;28;20554;-77
2022/09/21 11:57:23;;;;;;;1.15;1.00;;;16.30;97.80;;;;;;4987926;28;20073;-77
2022/09/21 12:00:16;;;;;;;1.90;1.52;;;16.80;94.40;;;;;;4968717;28;20092;-77
2022/09/21 12:03:07;;;;;;;5.82;0.80;;;16.90;93.40;;;;;;4979880;28;20490;-77
2022/09/21 12:05:41;;;;;;;1.25;0.57;;;17.80;91.20;;;;;;4986227;28;20041;-77
2022/09/21 12:08:25;;;;;;;3.13;0.57;;;18.50;78.40;;;;;;4990373;28;20041;-78
2022/09/21 12:10:57;;;;;;;2.17;0.70;;;19.20;68.30;;;;;;4990595;28;20073;-79
2022/09/21 12:13:39;;;;;;;0.90;0.85;;;19.90;66.60;;;;;;4988517;28;20033;-78
2022/09/21 12:16:12;;;;;;;2.63;0.75;;;21.10;63.00;;;;;;5003316;28;20132;-78
2022/09/21 12:18:53;;;;;;;0.68;0.68;;;21.60;60.30;;;;;;4987936;28;20408;-77
2022/09/21 12:21:23;;;;;;;0.52;0.52;;;21.50;57.30;;;;;;4987038;28;20149;-77
2022/09/21 12:23:53;;;;;;;0.60;0.60;;;20.70;59.60;;;;;;4986937;28;20077;-76
2022/09/21 12:26:25;;;;;;;0.52;0.52;;;20.10;59.90;;;;;;5002079;28;20037;-77
2022/09/21 12:29:06;;;;;;;1.05;0.52;;;20.40;60.00;;;;;;4984872;28;20146;-77
2022/09/21 12:31:35;;;;;;;5.15;0.43;;;21.20;58.40;;;;;;4987074;28;20061;-79
2022/09/21 12:34:14;;;;;;;1.20;0.57;;;22.40;55.80;;;;;;4986717;28;20621;-77
2022/09/21 12:37:11;;;;;;;0.30;0.30;;;22.50;53.60;;;;;;4987816;28;20030;-77
2022/09/21 12:39:53;;;;;;;1.65;0.90;;;21.30;55.30;;;;;;4987425;28;20042;-76
2022/09/21 12:42:39;;;;;;;2.42;0.60;;;21.50;55.90;;;;;;4987926;28;20387;-75
2022/09/21 12:45:25;;;;;;;0.47;0.47;;;21.00;55.70;;;;;;4988162;28;20061;-77
2022/09/21 12:48:15;;;;;;;1.67;0.85;;;20.80;56.00;;;;;;4992143;28;20486;-79
2022/09/21 12:51:04;;;;;;;0.98;0.88;;;21.60;57.80;;;;;;4992573;28;20026;-78
2022/09/21 12:53:33;;;;;;;0.65;0.65;;;22.90;56.50;;;;;;4992561;28;20049;-78
2022/09/21 12:56:05;;;;;;;1.40;1.10;;;23.80;52.40;;;;;;4992602;28;20019;-78
2022/09/21 12:58:52;;;;;;;1.27;0.98;;;24.20;48.80;;;;;;4992182;28;20034;-76
2022/09/21 13:01:32;;;;;;;0.45;0.45;;;23.80;50.50;;;;;;4992596;28;20046;-77
2022/09/21 13:04:11;;;;;;;1.10;0.73;;;22.90;53.40;;;;;;4992721;28;20050;-76
2022/09/21 13:07:01;;;;;;;1.13;0.70;;;22.90;51.40;;;;;;4992425;28;20102;-76
2022/09/21 13:09:29;;;;;;;0.50;0.50;;;23.20;53.60;;;;;;4992012;28;20429;-77
2022/09/21 13:12:05;;;;;;;0.30;0.30;;;23.50;51.20;;;;;;4992122;28;20034;-78
2022/09/21 13:14:35;;;;;;;0.38;0.30;;;24.30;51.20;;;;;;4991751;28;20026;-79
2022/09/21 13:17:04;;;;;;;0.50;0.50;;;25.50;48.70;;;;;;5006780;28;20030;-79
2022/09/21 13:19:31;;;;;;;;;;;26.00;47.70;;;;;;4992208;28;20050;-77
2022/09/21 13:22:14;;;;;;;0.40;0.40;;;24.60;48.40;;;;;;4992436;28;19905;-77
2022/09/21 13:24:42;;;;;;;1.65;0.50;;;23.00;52.10;;;;;;4995836;28;20489;-77
2022/09/21 13:27:08;;;;;;;0.45;0.43;;;22.20;51.20;;;;;;4993215;28;20097;-77